sensor_id;sensor_type;location;lat;lon;timestamp;P1;durP1;ratioP1;P2;durP2;ratioP2
63801;SDS011;49949;43.060;25.624;2022-10-16T00:01:59;9.80;;;5.60;;
63801;SDS011;49949;43.060;25.624;2022-10-16T00:04:25;11.65;;;6.55;;
63801;SDS011;49949;43.060;25.624;2022-10-16T00:06:51;13.48;;;6.63;;
63801;SDS011;49949;43.060;25.624;2022-10-16T00:09:16;10.02;;;6.60;;
63801;SDS011;49949;43.060;25.624;2022-10-16T00:11:42;8.00;;;5.55;;
63801;SDS011;49949;43.060;25.624;2022-10-16T00:14:13;9.10;;;6.20;;
63801;SDS011;49949;43.060;25.624;2022-10-16T00:16:39;8.40;;;5.20;;
63801;SDS011;49949;43.060;25.624;2022-10-16T00:19:06;10.02;;;6.03;;
63801;SDS011;49949;43.060;25.624;2022-10-16T00:21:32;10.50;;;6.47;;
63801;SDS011;49949;43.060;25.624;2022-10-16T00:24:00;10.23;;;6.20;;
63801;SDS011;49949;43.060;25.624;2022-10-16T00:26:32;11.30;;;5.90;;
63801;SDS011;49949;43.060;25.624;2022-10-16T00:28:59;10.55;;;6.10;;
63801;SDS011;49949;43.060;25.624;2022-10-16T00:31:25;15.90;;;6.70;;
63801;SDS011;49949;43.060;25.624;2022-10-16T00:33:51;8.20;;;6.25;;
63801;SDS011;49949;43.060;25.624;2022-10-16T00:36:18;7.95;;;5.97;;
63801;SDS011;49949;43.060;25.624;2022-10-16T00:38:45;10.57;;;6.43;;
63801;SDS011;49949;43.060;25.624;2022-10-16T00:41:13;10.27;;;6.07;;
63801;SDS011;49949;43.060;25.624;2022-10-16T00:43:44;12.10;;;6.13;;
63801;SDS011;49949;43.060;25.624;2022-10-16T00:46:27;10.18;;;6.22;;
63801;SDS011;49949;43.060;25.624;2022-10-16T00:49:10;12.32;;;7.03;;
63801;SDS011;49949;43.060;25.624;2022-10-16T00:51:45;11.32;;;6.00;;
63801;SDS011;49949;43.060;25.624;2022-10-16T00:54:16;9.20;;;5.78;;
63801;SDS011;49949;43.060;25.624;2022-10-16T00:56:47;9.75;;;5.32;;
63801;SDS011;49949;43.060;25.624;2022-10-16T00:59:15;8.88;;;5.93;;
63801;SDS011;49949;43.060;25.624;2022-10-16T01:01:45;10.10;;;6.20;;
63801;SDS011;49949;43.060;25.624;2022-10-16T01:04:11;11.00;;;6.18;;
63801;SDS011;49949;43.060;25.624;2022-10-16T01:06:46;9.00;;;5.97;;
63801;SDS011;49949;43.060;25.624;2022-10-16T01:15:14;8.98;;;6.00;;
63801;SDS011;49949;43.060;25.624;2022-10-16T01:20:44;8.85;;;6.30;;
63801;SDS011;49949;43.060;25.624;2022-10-16T01:29:06;9.27;;;5.97;;
63801;SDS011;49949;43.060;25.624;2022-10-16T01:31:34;8.07;;;6.20;;
63801;SDS011;49949;43.060;25.624;2022-10-16T01:36:51;9.02;;;5.68;;
63801;SDS011;49949;43.060;25.624;2022-10-16T01:39:22;10.98;;;5.50;;
63801;SDS011;49949;43.060;25.624;2022-10-16T01:41:54;10.75;;;6.00;;
63801;SDS011;49949;43.060;25.624;2022-10-16T01:44:26;11.25;;;6.75;;
63801;SDS011;49949;43.060;25.624;2022-10-16T01:46:55;9.50;;;6.00;;
63801;SDS011;49949;43.060;25.624;2022-10-16T01:49:23;13.77;;;6.43;;
63801;SDS011;49949;43.060;25.624;2022-10-16T01:51:52;9.20;;;5.90;;
63801;SDS011;49949;43.060;25.624;2022-10-16T01:54:21;10.40;;;6.10;;
63801;SDS011;49949;43.060;25.624;2022-10-16T01:56:50;13.30;;;7.05;;
63801;SDS011;49949;43.060;25.624;2022-10-16T01:59:18;10.70;;;6.40;;
63801;SDS011;49949;43.060;25.624;2022-10-16T02:01:54;12.38;;;6.70;;
63801;SDS011;49949;43.060;25.624;2022-10-16T02:04:24;10.77;;;6.45;;
63801;SDS011;49949;43.060;25.624;2022-10-16T02:07:12;9.35;;;5.93;;
63801;SDS011;49949;43.060;25.624;2022-10-16T02:09:39;11.13;;;6.47;;
63801;SDS011;49949;43.060;25.624;2022-10-16T02:12:09;12.20;;;6.25;;
63801;SDS011;49949;43.060;25.624;2022-10-16T02:14:40;8.27;;;6.57;;
63801;SDS011;49949;43.060;25.624;2022-10-16T02:17:14;59.67;;;24.83;;
63801;SDS011;49949;43.060;25.624;2022-10-16T02:19:42;9.35;;;6.60;;
63801;SDS011;49949;43.060;25.624;2022-10-16T02:22:10;12.43;;;6.47;;
63801;SDS011;49949;43.060;25.624;2022-10-16T02:24:47;13.32;;;6.55;;
63801;SDS011;49949;43.060;25.624;2022-10-16T02:27:31;9.27;;;6.32;;
63801;SDS011;49949;43.060;25.624;2022-10-16T02:30:08;13.70;;;5.85;;
63801;SDS011;49949;43.060;25.624;2022-10-16T02:32:40;10.35;;;5.68;;
63801;SDS011;49949;43.060;25.624;2022-10-16T02:35:09;7.72;;;5.45;;
63801;SDS011;49949;43.060;25.624;2022-10-16T02:37:35;8.15;;;5.15;;
63801;SDS011;49949;43.060;25.624;2022-10-16T02:40:03;9.00;;;5.68;;
63801;SDS011;49949;43.060;25.624;2022-10-16T02:42:34;10.13;;;5.93;;
63801;SDS011;49949;43.060;25.624;2022-10-16T02:45:01;11.02;;;6.15;;
63801;SDS011;49949;43.060;25.624;2022-10-16T02:47:27;9.15;;;6.18;;
63801;SDS011;49949;43.060;25.624;2022-10-16T02:49:52;8.93;;;5.75;;
63801;SDS011;49949;43.060;25.624;2022-10-16T02:52:18;10.38;;;6.50;;
63801;SDS011;49949;43.060;25.624;2022-10-16T02:54:44;9.57;;;6.03;;
63801;SDS011;49949;43.060;25.624;2022-10-16T02:57:10;8.63;;;6.18;;
63801;SDS011;49949;43.060;25.624;2022-10-16T02:59:36;12.40;;;6.03;;
63801;SDS011;49949;43.060;25.624;2022-10-16T03:02:02;11.25;;;6.20;;
63801;SDS011;49949;43.060;25.624;2022-10-16T03:04:28;7.55;;;5.65;;
63801;SDS011;49949;43.060;25.624;2022-10-16T03:06:54;9.90;;;6.25;;
63801;SDS011;49949;43.060;25.624;2022-10-16T03:09:19;9.32;;;6.85;;
63801;SDS011;49949;43.060;25.624;2022-10-16T03:11:45;9.77;;;6.47;;
63801;SDS011;49949;43.060;25.624;2022-10-16T03:14:11;9.07;;;6.15;;
63801;SDS011;49949;43.060;25.624;2022-10-16T03:16:36;9.00;;;5.93;;
63801;SDS011;49949;43.060;25.624;2022-10-16T03:19:02;17.02;;;8.57;;
63801;SDS011;49949;43.060;25.624;2022-10-16T03:21:28;11.52;;;6.18;;
63801;SDS011;49949;43.060;25.624;2022-10-16T03:23:53;10.30;;;6.72;;
63801;SDS011;49949;43.060;25.624;2022-10-16T03:26:19;12.60;;;6.78;;
63801;SDS011;49949;43.060;25.624;2022-10-16T03:28:45;11.15;;;6.57;;
63801;SDS011;49949;43.060;25.624;2022-10-16T03:31:10;11.30;;;6.25;;
63801;SDS011;49949;43.060;25.624;2022-10-16T03:33:36;14.63;;;6.35;;
63801;SDS011;49949;43.060;25.624;2022-10-16T03:36:02;10.13;;;6.20;;
63801;SDS011;49949;43.060;25.624;2022-10-16T03:38:27;13.52;;;6.40;;
63801;SDS011;49949;43.060;25.624;2022-10-16T03:40:53;9.43;;;6.20;;
63801;SDS011;49949;43.060;25.624;2022-10-16T03:43:19;14.68;;;6.95;;
63801;SDS011;49949;43.060;25.624;2022-10-16T03:45:44;16.17;;;7.15;;
63801;SDS011;49949;43.060;25.624;2022-10-16T03:48:10;17.85;;;7.15;;
63801;SDS011;49949;43.060;25.624;2022-10-16T03:50:36;8.85;;;5.95;;
63801;SDS011;49949;43.060;25.624;2022-10-16T03:53:02;10.35;;;6.05;;
63801;SDS011;49949;43.060;25.624;2022-10-16T03:55:28;9.57;;;6.22;;
63801;SDS011;49949;43.060;25.624;2022-10-16T03:57:53;9.02;;;6.07;;
63801;SDS011;49949;43.060;25.624;2022-10-16T04:00:19;32.33;;;7.45;;
63801;SDS011;49949;43.060;25.624;2022-10-16T04:02:45;13.07;;;6.55;;
63801;SDS011;49949;43.060;25.624;2022-10-16T04:05:10;14.07;;;7.38;;
63801;SDS011;49949;43.060;25.624;2022-10-16T04:07:36;10.23;;;6.38;;
63801;SDS011;49949;43.060;25.624;2022-10-16T04:10:03;12.68;;;6.70;;
63801;SDS011;49949;43.060;25.624;2022-10-16T04:12:29;12.52;;;7.75;;
63801;SDS011;49949;43.060;25.624;2022-10-16T04:14:55;12.43;;;7.00;;
63801;SDS011;49949;43.060;25.624;2022-10-16T04:17:21;14.27;;;7.78;;
63801;SDS011;49949;43.060;25.624;2022-10-16T04:19:46;20.02;;;8.18;;
63801;SDS011;49949;43.060;25.624;2022-10-16T04:22:12;11.93;;;7.03;;
63801;SDS011;49949;43.060;25.624;2022-10-16T04:24:38;12.88;;;7.22;;
63801;SDS011;49949;43.060;25.624;2022-10-16T04:27:03;15.13;;;7.25;;
63801;SDS011;49949;43.060;25.624;2022-10-16T04:29:29;14.60;;;7.13;;
63801;SDS011;49949;43.060;25.624;2022-10-16T04:31:55;10.52;;;7.03;;
63801;SDS011;49949;43.060;25.624;2022-10-16T04:34:20;12.82;;;7.72;;
63801;SDS011;49949;43.060;25.624;2022-10-16T04:36:47;15.63;;;7.15;;
63801;SDS011;49949;43.060;25.624;2022-10-16T04:39:14;12.77;;;7.95;;
63801;SDS011;49949;43.060;25.624;2022-10-16T04:41:40;17.75;;;8.10;;
63801;SDS011;49949;43.060;25.624;2022-10-16T04:44:05;13.07;;;8.23;;
63801;SDS011;49949;43.060;25.624;2022-10-16T04:46:31;15.43;;;8.60;;
63801;SDS011;49949;43.060;25.624;2022-10-16T04:48:57;24.13;;;9.07;;
63801;SDS011;49949;43.060;25.624;2022-10-16T04:51:23;21.35;;;9.38;;
63801;SDS011;49949;43.060;25.624;2022-10-16T04:53:50;16.73;;;8.93;;
63801;SDS011;49949;43.060;25.624;2022-10-16T04:56:16;18.42;;;9.45;;
63801;SDS011;49949;43.060;25.624;2022-10-16T04:58:42;20.45;;;10.00;;
63801;SDS011;49949;43.060;25.624;2022-10-16T05:01:07;20.83;;;9.10;;
63801;SDS011;49949;43.060;25.624;2022-10-16T05:03:33;18.35;;;10.25;;
63801;SDS011;49949;43.060;25.624;2022-10-16T05:05:59;16.05;;;9.63;;
63801;SDS011;49949;43.060;25.624;2022-10-16T05:08:25;15.05;;;8.70;;
63801;SDS011;49949;43.060;25.624;2022-10-16T05:10:50;12.20;;;8.65;;
63801;SDS011;49949;43.060;25.624;2022-10-16T05:13:16;17.35;;;8.05;;
63801;SDS011;49949;43.060;25.624;2022-10-16T05:15:46;18.25;;;9.23;;
63801;SDS011;49949;43.060;25.624;2022-10-16T05:18:13;16.15;;;8.73;;
63801;SDS011;49949;43.060;25.624;2022-10-16T05:20:39;17.45;;;9.63;;
63801;SDS011;49949;43.060;25.624;2022-10-16T05:23:04;18.00;;;9.25;;
63801;SDS011;49949;43.060;25.624;2022-10-16T05:25:30;18.50;;;10.27;;
63801;SDS011;49949;43.060;25.624;2022-10-16T05:27:56;20.25;;;10.00;;
63801;SDS011;49949;43.060;25.624;2022-10-16T05:30:21;17.98;;;8.77;;
63801;SDS011;49949;43.060;25.624;2022-10-16T05:32:47;19.80;;;9.30;;
63801;SDS011;49949;43.060;25.624;2022-10-16T05:35:14;20.38;;;10.00;;
63801;SDS011;49949;43.060;25.624;2022-10-16T05:37:40;21.73;;;10.00;;
63801;SDS011;49949;43.060;25.624;2022-10-16T05:40:06;19.67;;;10.43;;
63801;SDS011;49949;43.060;25.624;2022-10-16T05:42:32;24.80;;;11.23;;
63801;SDS011;49949;43.060;25.624;2022-10-16T05:44:58;20.83;;;10.25;;
63801;SDS011;49949;43.060;25.624;2022-10-16T05:47:23;22.80;;;10.98;;
63801;SDS011;49949;43.060;25.624;2022-10-16T05:49:49;21.90;;;10.95;;
63801;SDS011;49949;43.060;25.624;2022-10-16T05:52:15;20.38;;;10.15;;
63801;SDS011;49949;43.060;25.624;2022-10-16T05:54:40;23.60;;;11.82;;
63801;SDS011;49949;43.060;25.624;2022-10-16T05:57:06;22.40;;;11.75;;
63801;SDS011;49949;43.060;25.624;2022-10-16T05:59:32;21.48;;;10.52;;
63801;SDS011;49949;43.060;25.624;2022-10-16T06:01:57;20.85;;;10.43;;
63801;SDS011;49949;43.060;25.624;2022-10-16T06:04:23;24.98;;;10.82;;
63801;SDS011;49949;43.060;25.624;2022-10-16T06:06:49;23.83;;;10.85;;
63801;SDS011;49949;43.060;25.624;2022-10-16T06:09:14;26.20;;;11.52;;
63801;SDS011;49949;43.060;25.624;2022-10-16T06:11:40;17.80;;;9.75;;
63801;SDS011;49949;43.060;25.624;2022-10-16T06:14:06;22.75;;;10.73;;
63801;SDS011;49949;43.060;25.624;2022-10-16T06:16:33;36.08;;;11.15;;
63801;SDS011;49949;43.060;25.624;2022-10-16T06:19:00;21.55;;;10.18;;
63801;SDS011;49949;43.060;25.624;2022-10-16T06:21:27;23.52;;;10.07;;
63801;SDS011;49949;43.060;25.624;2022-10-16T06:23:54;27.10;;;11.20;;
63801;SDS011;49949;43.060;25.624;2022-10-16T06:26:22;26.27;;;11.10;;
63801;SDS011;49949;43.060;25.624;2022-10-16T06:28:50;31.08;;;10.52;;
63801;SDS011;49949;43.060;25.624;2022-10-16T06:31:16;23.15;;;9.88;;
63801;SDS011;49949;43.060;25.624;2022-10-16T06:33:42;20.13;;;9.35;;
63801;SDS011;49949;43.060;25.624;2022-10-16T06:36:12;22.60;;;9.40;;
63801;SDS011;49949;43.060;25.624;2022-10-16T06:38:41;22.13;;;9.10;;
63801;SDS011;49949;43.060;25.624;2022-10-16T06:41:07;23.95;;;10.05;;
63801;SDS011;49949;43.060;25.624;2022-10-16T06:43:36;24.38;;;9.65;;
63801;SDS011;49949;43.060;25.624;2022-10-16T06:46:02;18.15;;;8.40;;
63801;SDS011;49949;43.060;25.624;2022-10-16T06:48:30;18.25;;;7.65;;
63801;SDS011;49949;43.060;25.624;2022-10-16T06:53:25;13.77;;;6.72;;
63801;SDS011;49949;43.060;25.624;2022-10-16T06:55:52;32.30;;;8.57;;
63801;SDS011;49949;43.060;25.624;2022-10-16T06:58:18;21.73;;;8.18;;
63801;SDS011;49949;43.060;25.624;2022-10-16T07:00:44;13.05;;;7.50;;
63801;SDS011;49949;43.060;25.624;2022-10-16T07:03:09;15.32;;;7.45;;
63801;SDS011;49949;43.060;25.624;2022-10-16T07:05:39;13.48;;;6.85;;
63801;SDS011;49949;43.060;25.624;2022-10-16T07:08:05;9.57;;;6.65;;
63801;SDS011;49949;43.060;25.624;2022-10-16T07:10:32;12.35;;;7.05;;
63801;SDS011;49949;43.060;25.624;2022-10-16T07:12:58;14.10;;;6.72;;
63801;SDS011;49949;43.060;25.624;2022-10-16T07:15:24;10.27;;;6.25;;
63801;SDS011;49949;43.060;25.624;2022-10-16T07:17:50;13.27;;;6.32;;
63801;SDS011;49949;43.060;25.624;2022-10-16T07:20:15;9.25;;;5.97;;
63801;SDS011;49949;43.060;25.624;2022-10-16T07:22:41;10.82;;;5.90;;
63801;SDS011;49949;43.060;25.624;2022-10-16T07:25:07;10.43;;;6.43;;
63801;SDS011;49949;43.060;25.624;2022-10-16T07:27:33;12.05;;;5.70;;
63801;SDS011;49949;43.060;25.624;2022-10-16T07:29:59;6.88;;;4.65;;
63801;SDS011;49949;43.060;25.624;2022-10-16T07:32:25;8.25;;;5.35;;
63801;SDS011;49949;43.060;25.624;2022-10-16T07:34:52;9.38;;;5.70;;
63801;SDS011;49949;43.060;25.624;2022-10-16T07:37:18;10.02;;;5.32;;
63801;SDS011;49949;43.060;25.624;2022-10-16T07:39:44;8.70;;;5.47;;
63801;SDS011;49949;43.060;25.624;2022-10-16T07:42:09;9.35;;;5.40;;
63801;SDS011;49949;43.060;25.624;2022-10-16T07:44:35;9.57;;;5.22;;
63801;SDS011;49949;43.060;25.624;2022-10-16T07:47:01;9.50;;;4.95;;
63801;SDS011;49949;43.060;25.624;2022-10-16T07:49:27;8.98;;;5.40;;
63801;SDS011;49949;43.060;25.624;2022-10-16T07:51:53;10.18;;;5.20;;
63801;SDS011;49949;43.060;25.624;2022-10-16T07:54:19;8.65;;;4.90;;
63801;SDS011;49949;43.060;25.624;2022-10-16T07:56:44;8.23;;;4.40;;
63801;SDS011;49949;43.060;25.624;2022-10-16T07:59:10;7.53;;;4.55;;
63801;SDS011;49949;43.060;25.624;2022-10-16T08:01:36;6.50;;;4.43;;
63801;SDS011;49949;43.060;25.624;2022-10-16T08:04:02;5.65;;;3.75;;
63801;SDS011;49949;43.060;25.624;2022-10-16T08:06:28;8.15;;;4.90;;
63801;SDS011;49949;43.060;25.624;2022-10-16T08:08:54;6.15;;;3.85;;
63801;SDS011;49949;43.060;25.624;2022-10-16T08:11:20;6.20;;;4.32;;
63801;SDS011;49949;43.060;25.624;2022-10-16T08:13:46;7.32;;;4.38;;
63801;SDS011;49949;43.060;25.624;2022-10-16T08:16:12;6.95;;;3.92;;
63801;SDS011;49949;43.060;25.624;2022-10-16T08:18:38;13.10;;;4.10;;
63801;SDS011;49949;43.060;25.624;2022-10-16T08:21:05;7.78;;;3.60;;
63801;SDS011;49949;43.060;25.624;2022-10-16T08:23:32;9.18;;;3.60;;
63801;SDS011;49949;43.060;25.624;2022-10-16T08:26:01;5.45;;;3.40;;
63801;SDS011;49949;43.060;25.624;2022-10-16T08:28:28;7.25;;;3.70;;
63801;SDS011;49949;43.060;25.624;2022-10-16T08:30:54;6.03;;;3.83;;
63801;SDS011;49949;43.060;25.624;2022-10-16T08:33:21;5.72;;;3.40;;
63801;SDS011;49949;43.060;25.624;2022-10-16T08:35:51;6.20;;;3.53;;
63801;SDS011;49949;43.060;25.624;2022-10-16T08:38:18;5.67;;;3.70;;
63801;SDS011;49949;43.060;25.624;2022-10-16T08:40:45;9.70;;;3.28;;
63801;SDS011;49949;43.060;25.624;2022-10-16T08:46:18;3.33;;;2.85;;
63801;SDS011;49949;43.060;25.624;2022-10-16T08:48:58;8.30;;;3.10;;
63801;SDS011;49949;43.060;25.624;2022-10-16T08:51:31;6.82;;;3.17;;
63801;SDS011;49949;43.060;25.624;2022-10-16T08:54:03;4.63;;;2.97;;
63801;SDS011;49949;43.060;25.624;2022-10-16T08:56:31;5.70;;;3.13;;
63801;SDS011;49949;43.060;25.624;2022-10-16T08:58:58;5.45;;;2.95;;
63801;SDS011;49949;43.060;25.624;2022-10-16T09:01:27;5.50;;;2.90;;
63801;SDS011;49949;43.060;25.624;2022-10-16T09:07:12;3.42;;;2.38;;
63801;SDS011;49949;43.060;25.624;2022-10-16T09:09:54;5.70;;;3.20;;
63801;SDS011;49949;43.060;25.624;2022-10-16T09:12:40;3.38;;;3.05;;
63801;SDS011;49949;43.060;25.624;2022-10-16T09:18:00;5.32;;;2.90;;
63801;SDS011;49949;43.060;25.624;2022-10-16T09:23:12;5.35;;;2.50;;
63801;SDS011;49949;43.060;25.624;2022-10-16T09:25:44;7.75;;;2.80;;
63801;SDS011;49949;43.060;25.624;2022-10-16T09:28:13;3.40;;;2.55;;
63801;SDS011;49949;43.060;25.624;2022-10-16T09:30:39;4.45;;;2.60;;
63801;SDS011;49949;43.060;25.624;2022-10-16T09:33:05;3.50;;;2.47;;
63801;SDS011;49949;43.060;25.624;2022-10-16T09:35:51;3.35;;;2.10;;
63801;SDS011;49949;43.060;25.624;2022-10-16T09:38:28;4.38;;;2.22;;
63801;SDS011;49949;43.060;25.624;2022-10-16T09:40:59;3.15;;;2.05;;
63801;SDS011;49949;43.060;25.624;2022-10-16T09:43:26;3.70;;;2.20;;
63801;SDS011;49949;43.060;25.624;2022-10-16T09:46:30;4.95;;;2.60;;
63801;SDS011;49949;43.060;25.624;2022-10-16T09:48:58;4.80;;;2.47;;
63801;SDS011;49949;43.060;25.624;2022-10-16T09:51:42;3.50;;;2.10;;
63801;SDS011;49949;43.060;25.624;2022-10-16T09:56:34;2.72;;;2.20;;
63801;SDS011;49949;43.060;25.624;2022-10-16T09:59:11;6.93;;;1.50;;
63801;SDS011;49949;43.060;25.624;2022-10-16T10:01:49;3.03;;;1.88;;
63801;SDS011;49949;43.060;25.624;2022-10-16T10:04:17;2.58;;;2.08;;
63801;SDS011;49949;43.060;25.624;2022-10-16T10:06:51;4.45;;;1.83;;
63801;SDS011;49949;43.060;25.624;2022-10-16T10:09:22;5.05;;;2.10;;
63801;SDS011;49949;43.060;25.624;2022-10-16T10:11:54;4.38;;;2.13;;
63801;SDS011;49949;43.060;25.624;2022-10-16T10:22:25;2.83;;;2.22;;
63801;SDS011;49949;43.060;25.624;2022-10-16T10:33:21;4.38;;;2.72;;
63801;SDS011;49949;43.060;25.624;2022-10-16T10:36:14;3.90;;;1.73;;
63801;SDS011;49949;43.060;25.624;2022-10-16T10:38:49;3.00;;;2.20;;
63801;SDS011;49949;43.060;25.624;2022-10-16T10:55:38;4.95;;;2.30;;
63801;SDS011;49949;43.060;25.624;2022-10-16T11:01:04;4.72;;;2.63;;
63801;SDS011;49949;43.060;25.624;2022-10-16T11:06:18;5.35;;;2.47;;
63801;SDS011;49949;43.060;25.624;2022-10-16T11:08:57;9.52;;;2.30;;
63801;SDS011;49949;43.060;25.624;2022-10-16T11:11:40;6.45;;;2.47;;
63801;SDS011;49949;43.060;25.624;2022-10-16T11:14:13;8.75;;;2.38;;
63801;SDS011;49949;43.060;25.624;2022-10-16T11:17:02;3.42;;;2.30;;
63801;SDS011;49949;43.060;25.624;2022-10-16T11:19:53;5.65;;;2.50;;
63801;SDS011;49949;43.060;25.624;2022-10-16T11:22:33;5.88;;;2.70;;
63801;SDS011;49949;43.060;25.624;2022-10-16T11:27:45;5.22;;;2.97;;
63801;SDS011;49949;43.060;25.624;2022-10-16T11:30:18;4.20;;;2.70;;
63801;SDS011;49949;43.060;25.624;2022-10-16T11:33:04;4.28;;;3.00;;
63801;SDS011;49949;43.060;25.624;2022-10-16T11:38:33;6.20;;;3.10;;
63801;SDS011;49949;43.060;25.624;2022-10-16T11:55:59;4.68;;;2.70;;
63801;SDS011;49949;43.060;25.624;2022-10-16T11:58:29;4.72;;;2.70;;
63801;SDS011;49949;43.060;25.624;2022-10-16T12:03:48;6.07;;;2.25;;
63801;SDS011;49949;43.060;25.624;2022-10-16T12:08:59;3.30;;;2.40;;
63801;SDS011;49949;43.060;25.624;2022-10-16T12:13:52;3.88;;;2.40;;
63801;SDS011;49949;43.060;25.624;2022-10-16T12:16:32;5.72;;;2.35;;
63801;SDS011;49949;43.060;25.624;2022-10-16T12:19:11;3.72;;;2.50;;
63801;SDS011;49949;43.060;25.624;2022-10-16T12:21:41;6.50;;;2.63;;
63801;SDS011;49949;43.060;25.624;2022-10-16T12:26:56;4.45;;;2.22;;
63801;SDS011;49949;43.060;25.624;2022-10-16T12:29:32;6.25;;;2.38;;
63801;SDS011;49949;43.060;25.624;2022-10-16T12:32:06;11.45;;;2.08;;
63801;SDS011;49949;43.060;25.624;2022-10-16T12:34:53;6.38;;;2.80;;
63801;SDS011;49949;43.060;25.624;2022-10-16T12:37:26;3.42;;;2.40;;
63801;SDS011;49949;43.060;25.624;2022-10-16T12:39:59;5.38;;;2.15;;
63801;SDS011;49949;43.060;25.624;2022-10-16T12:42:41;5.53;;;1.88;;
63801;SDS011;49949;43.060;25.624;2022-10-16T12:45:40;3.28;;;1.95;;
63801;SDS011;49949;43.060;25.624;2022-10-16T12:48:00;11.93;;;2.20;;
63801;SDS011;49949;43.060;25.624;2022-10-16T12:53:03;5.28;;;2.20;;
63801;SDS011;49949;43.060;25.624;2022-10-16T12:58:28;5.78;;;2.60;;
63801;SDS011;49949;43.060;25.624;2022-10-16T13:01:22;5.00;;;2.25;;
63801;SDS011;49949;43.060;25.624;2022-10-16T13:12:37;5.30;;;2.10;;
63801;SDS011;49949;43.060;25.624;2022-10-16T13:26:00;3.85;;;2.30;;
63801;SDS011;49949;43.060;25.624;2022-10-16T13:28:49;8.20;;;2.58;;
63801;SDS011;49949;43.060;25.624;2022-10-16T13:31:16;3.40;;;2.30;;
63801;SDS011;49949;43.060;25.624;2022-10-16T13:33:50;5.43;;;2.25;;
63801;SDS011;49949;43.060;25.624;2022-10-16T13:36:33;5.00;;;2.30;;
63801;SDS011;49949;43.060;25.624;2022-10-16T13:41:42;3.70;;;2.15;;
63801;SDS011;49949;43.060;25.624;2022-10-16T13:44:20;6.68;;;2.08;;
63801;SDS011;49949;43.060;25.624;2022-10-16T13:46:46;4.85;;;2.20;;
63801;SDS011;49949;43.060;25.624;2022-10-16T13:49:15;5.32;;;2.42;;
63801;SDS011;49949;43.060;25.624;2022-10-16T13:51:47;3.47;;;2.17;;
63801;SDS011;49949;43.060;25.624;2022-10-16T13:54:19;7.68;;;2.42;;
63801;SDS011;49949;43.060;25.624;2022-10-16T13:56:45;8.35;;;2.00;;
63801;SDS011;49949;43.060;25.624;2022-10-16T14:01:57;8.60;;;2.13;;
63801;SDS011;49949;43.060;25.624;2022-10-16T14:04:25;3.15;;;2.08;;
63801;SDS011;49949;43.060;25.624;2022-10-16T14:06:55;5.82;;;2.38;;
63801;SDS011;49949;43.060;25.624;2022-10-16T14:09:25;5.03;;;2.03;;
63801;SDS011;49949;43.060;25.624;2022-10-16T14:11:56;4.40;;;2.50;;
63801;SDS011;49949;43.060;25.624;2022-10-16T14:14:42;4.75;;;2.50;;
63801;SDS011;49949;43.060;25.624;2022-10-16T14:17:29;5.15;;;2.08;;
63801;SDS011;49949;43.060;25.624;2022-10-16T14:19:58;4.85;;;1.90;;
63801;SDS011;49949;43.060;25.624;2022-10-16T14:22:32;4.93;;;2.53;;
63801;SDS011;49949;43.060;25.624;2022-10-16T14:27:43;3.63;;;1.65;;
63801;SDS011;49949;43.060;25.624;2022-10-16T14:30:15;4.25;;;2.40;;
63801;SDS011;49949;43.060;25.624;2022-10-16T14:32:52;3.45;;;2.13;;
63801;SDS011;49949;43.060;25.624;2022-10-16T14:35:39;7.18;;;2.15;;
63801;SDS011;49949;43.060;25.624;2022-10-16T14:38:05;6.95;;;1.98;;
63801;SDS011;49949;43.060;25.624;2022-10-16T14:40:32;4.88;;;2.40;;
63801;SDS011;49949;43.060;25.624;2022-10-16T14:43:00;3.25;;;2.00;;
63801;SDS011;49949;43.060;25.624;2022-10-16T14:45:28;4.03;;;2.28;;
63801;SDS011;49949;43.060;25.624;2022-10-16T14:48:00;2.95;;;2.15;;
63801;SDS011;49949;43.060;25.624;2022-10-16T14:50:29;5.25;;;1.80;;
63801;SDS011;49949;43.060;25.624;2022-10-16T14:52:54;4.68;;;2.60;;
63801;SDS011;49949;43.060;25.624;2022-10-16T14:55:21;3.80;;;2.33;;
63801;SDS011;49949;43.060;25.624;2022-10-16T14:57:47;4.38;;;2.30;;
63801;SDS011;49949;43.060;25.624;2022-10-16T15:00:20;5.15;;;2.60;;
63801;SDS011;49949;43.060;25.624;2022-10-16T15:02:48;3.88;;;1.95;;
63801;SDS011;49949;43.060;25.624;2022-10-16T15:05:21;5.22;;;2.33;;
63801;SDS011;49949;43.060;25.624;2022-10-16T15:07:49;7.43;;;2.42;;
63801;SDS011;49949;43.060;25.624;2022-10-16T15:10:16;2.63;;;2.13;;
63801;SDS011;49949;43.060;25.624;2022-10-16T15:12:43;8.07;;;2.38;;
63801;SDS011;49949;43.060;25.624;2022-10-16T15:17:53;7.18;;;3.28;;
63801;SDS011;49949;43.060;25.624;2022-10-16T15:20:22;5.50;;;2.58;;
63801;SDS011;49949;43.060;25.624;2022-10-16T15:22:49;4.63;;;2.75;;
63801;SDS011;49949;43.060;25.624;2022-10-16T15:25:30;3.80;;;2.53;;
63801;SDS011;49949;43.060;25.624;2022-10-16T15:30:23;6.10;;;2.03;;
63801;SDS011;49949;43.060;25.624;2022-10-16T15:32:48;8.93;;;2.78;;
63801;SDS011;49949;43.060;25.624;2022-10-16T15:35:14;6.13;;;2.50;;
63801;SDS011;49949;43.060;25.624;2022-10-16T15:37:40;4.03;;;2.20;;
63801;SDS011;49949;43.060;25.624;2022-10-16T15:40:05;4.45;;;2.60;;
63801;SDS011;49949;43.060;25.624;2022-10-16T15:42:31;6.38;;;3.00;;
63801;SDS011;49949;43.060;25.624;2022-10-16T15:44:57;4.28;;;2.85;;
63801;SDS011;49949;43.060;25.624;2022-10-16T15:47:23;5.00;;;2.78;;
63801;SDS011;49949;43.060;25.624;2022-10-16T15:49:48;9.15;;;2.92;;
63801;SDS011;49949;43.060;25.624;2022-10-16T15:52:14;5.85;;;3.20;;
63801;SDS011;49949;43.060;25.624;2022-10-16T15:54:40;6.70;;;3.53;;
63801;SDS011;49949;43.060;25.624;2022-10-16T15:57:05;10.40;;;3.67;;
63801;SDS011;49949;43.060;25.624;2022-10-16T15:59:31;4.82;;;3.40;;
63801;SDS011;49949;43.060;25.624;2022-10-16T16:01:57;13.85;;;3.30;;
63801;SDS011;49949;43.060;25.624;2022-10-16T16:04:22;8.77;;;3.13;;
63801;SDS011;49949;43.060;25.624;2022-10-16T16:06:48;10.45;;;3.78;;
63801;SDS011;49949;43.060;25.624;2022-10-16T16:09:14;6.18;;;3.38;;
63801;SDS011;49949;43.060;25.624;2022-10-16T16:11:39;8.48;;;3.35;;
63801;SDS011;49949;43.060;25.624;2022-10-16T16:14:06;13.57;;;3.97;;
63801;SDS011;49949;43.060;25.624;2022-10-16T16:16:32;5.85;;;4.32;;
63801;SDS011;49949;43.060;25.624;2022-10-16T16:19:02;23.10;;;11.93;;
63801;SDS011;49949;43.060;25.624;2022-10-16T16:21:32;6.97;;;3.45;;
63801;SDS011;49949;43.060;25.624;2022-10-16T16:23:58;6.07;;;3.15;;
63801;SDS011;49949;43.060;25.624;2022-10-16T16:28:51;9.40;;;3.95;;
63801;SDS011;49949;43.060;25.624;2022-10-16T16:31:18;14.05;;;3.63;;
63801;SDS011;49949;43.060;25.624;2022-10-16T16:33:44;5.70;;;3.40;;
63801;SDS011;49949;43.060;25.624;2022-10-16T16:36:10;5.70;;;3.38;;
63801;SDS011;49949;43.060;25.624;2022-10-16T16:38:36;8.55;;;3.80;;
63801;SDS011;49949;43.060;25.624;2022-10-16T16:44:01;6.90;;;3.35;;
63801;SDS011;49949;43.060;25.624;2022-10-16T16:46:28;17.07;;;4.03;;
63801;SDS011;49949;43.060;25.624;2022-10-16T16:48:57;9.02;;;4.47;;
63801;SDS011;49949;43.060;25.624;2022-10-16T16:51:23;8.75;;;3.83;;
63801;SDS011;49949;43.060;25.624;2022-10-16T16:53:49;6.38;;;3.63;;
63801;SDS011;49949;43.060;25.624;2022-10-16T16:56:17;9.63;;;3.85;;
63801;SDS011;49949;43.060;25.624;2022-10-16T16:58:49;7.03;;;4.03;;
63801;SDS011;49949;43.060;25.624;2022-10-16T17:01:20;10.63;;;3.50;;
63801;SDS011;49949;43.060;25.624;2022-10-16T17:03:47;7.63;;;4.00;;
63801;SDS011;49949;43.060;25.624;2022-10-16T17:06:15;6.97;;;3.80;;